createdAt,value
2018-06-05T00:00:21.179Z,65.90
2018-06-05T00:02:50.275Z,65.27
2018-06-05T00:05:19.405Z,65.86
2018-06-05T00:07:48.512Z,66.32
2018-06-05T00:10:17.601Z,66.27
2018-06-05T00:12:46.741Z,66.51
2018-06-05T00:15:15.885Z,65.91
2018-06-05T00:17:45.001Z,65.94
2018-06-05T00:20:14.097Z,66.94
2018-06-05T00:22:43.200Z,66.87
2018-06-05T00:25:12.306Z,66.26
2018-06-05T00:27:41.439Z,66.71
2018-06-05T00:30:10.541Z,66.78
2018-06-05T00:32:39.661Z,66.57
2018-06-05T00:35:08.776Z,67.15
2018-06-05T00:37:37.882Z,66.89
2018-06-05T00:40:06.996Z,67.00
2018-06-05T00:42:36.118Z,66.85
2018-06-05T00:45:05.237Z,67.06
2018-06-05T00:47:34.349Z,68.67
2018-06-05T00:50:03.498Z,68.48
2018-06-05T00:52:32.600Z,68.40
2018-06-05T00:55:01.705Z,69.42
2018-06-05T00:57:30.797Z,69.75
2018-06-05T00:59:59.901Z,69.97
2018-06-05T01:02:29.021Z,68.82
2018-06-05T01:04:58.131Z,69.26
2018-06-05T01:07:27.245Z,68.78
2018-06-05T01:09:56.345Z,67.96
2018-06-05T01:12:25.459Z,68.91
2018-06-05T01:14:54.556Z,68.42
2018-06-05T01:17:23.680Z,68.27
2018-06-05T01:19:52.785Z,68.46
2018-06-05T01:22:21.873Z,68.52
2018-06-05T01:24:50.981Z,70.09
2018-06-05T01:27:20.377Z,69.53
2018-06-05T01:29:49.473Z,68.46
2018-06-05T01:32:18.557Z,69.62
2018-06-05T01:34:47.672Z,69.11
2018-06-05T01:37:16.773Z,69.30
2018-06-05T01:39:45.913Z,69.53
2018-06-05T01:42:15.009Z,69.95
2018-06-05T01:44:44.102Z,68.86
2018-06-05T01:47:13.223Z,68.58
2018-06-05T01:49:42.293Z,68.93
2018-06-05T01:52:11.394Z,69.18
2018-06-05T01:54:40.479Z,68.80
2018-06-05T01:57:09.573Z,68.80
2018-06-05T01:59:38.672Z,69.88
2018-06-05T02:02:07.842Z,70.10
2018-06-05T02:04:36.950Z,70.78
2018-06-05T02:07:06.151Z,69.98
2018-06-05T02:09:35.253Z,69.89
2018-06-05T02:12:04.349Z,71.34
2018-06-05T02:14:33.473Z,71.24
2018-06-05T02:17:02.561Z,72.45
2018-06-05T02:19:31.677Z,72.22
2018-06-05T02:22:00.856Z,70.73
2018-06-05T02:24:29.986Z,71.70
2018-06-05T02:26:59.362Z,72.70
2018-06-05T02:29:28.457Z,71.89
2018-06-05T02:31:57.557Z,71.71
2018-06-05T02:34:26.665Z,72.51
2018-06-05T02:36:55.759Z,73.08
2018-06-05T02:39:24.861Z,72.81
2018-06-05T02:41:54.013Z,73.15
2018-06-05T02:44:23.125Z,73.40
2018-06-05T02:46:52.238Z,72.89
2018-06-05T02:49:21.329Z,72.69
2018-06-05T02:51:50.470Z,72.18
2018-06-05T02:54:19.565Z,71.89
2018-06-05T02:56:48.690Z,72.10
2018-06-05T02:59:17.777Z,73.11
2018-06-05T03:01:46.886Z,72.02
2018-06-05T03:04:16.005Z,73.06
2018-06-05T03:06:45.105Z,73.93
2018-06-05T03:09:14.214Z,74.13
2018-06-05T03:11:43.313Z,74.02
2018-06-05T03:14:12.421Z,73.99
2018-06-05T03:16:41.529Z,74.37
2018-06-05T03:19:10.641Z,73.33
2018-06-05T03:21:39.749Z,73.57
2018-06-05T03:24:08.853Z,73.36
2018-06-05T03:26:37.951Z,73.75
2018-06-05T03:29:07.069Z,73.48
2018-06-05T03:31:36.179Z,74.12
2018-06-05T03:34:05.350Z,73.56
2018-06-05T03:36:34.385Z,74.01
2018-06-05T03:39:04.625Z,74.05
2018-06-05T03:41:33.734Z,74.80
2018-06-05T03:44:02.840Z,74.44
2018-06-05T03:46:31.964Z,74.82
2018-06-05T03:49:01.109Z,74.03
2018-06-05T03:51:30.209Z,74.86
2018-06-05T03:53:59.312Z,74.45
2018-06-05T03:56:28.453Z,75.86
2018-06-05T03:58:57.505Z,74.99
2018-06-05T04:01:26.605Z,74.88
2018-06-05T04:03:55.746Z,75.75
2018-06-05T04:06:24.833Z,75.75
2018-06-05T04:08:53.929Z,75.31
2018-06-05T04:11:23.025Z,75.67
2018-06-05T04:13:52.141Z,76.16
2018-06-05T04:16:21.245Z,76.00
2018-06-05T04:18:50.345Z,75.79
2018-06-05T04:21:19.448Z,75.99
2018-06-05T04:23:48.594Z,75.57
2018-06-05T04:26:17.777Z,75.09
2018-06-05T04:28:46.882Z,75.06
2018-06-05T04:31:15.986Z,74.37
2018-06-05T04:33:45.085Z,75.60
2018-06-05T04:36:14.233Z,75.03
2018-06-05T04:38:43.293Z,75.44
2018-06-05T04:41:12.402Z,75.31
2018-06-05T04:43:41.521Z,75.12
2018-06-05T04:46:10.605Z,74.82
2018-06-05T04:48:39.709Z,73.21
2018-06-05T04:51:08.825Z,73.69
2018-06-05T04:53:37.927Z,74.03
2018-06-05T04:56:07.138Z,74.96
2018-06-05T04:58:36.248Z,74.64
2018-06-05T05:01:05.394Z,74.92
2018-06-05T05:03:34.485Z,75.46
2018-06-05T05:06:03.606Z,74.95
2018-06-05T05:08:32.702Z,75.19
2018-06-05T05:11:01.830Z,75.27
2018-06-05T05:13:30.925Z,74.53
2018-06-05T05:16:00.026Z,74.61
2018-06-05T05:18:29.142Z,73.49
2018-06-05T05:20:58.249Z,74.22
2018-06-05T05:23:27.356Z,73.76
2018-06-05T05:25:56.466Z,73.97
2018-06-05T05:28:25.564Z,73.20
2018-06-05T05:30:54.750Z,73.15
2018-06-05T05:33:23.794Z,74.04
2018-06-05T05:35:53.016Z,73.84
2018-06-05T05:38:22.148Z,73.04
2018-06-05T05:40:51.297Z,73.67
2018-06-05T05:43:20.405Z,73.53
2018-06-05T05:45:49.517Z,73.19
2018-06-05T05:48:18.622Z,73.26
2018-06-05T05:50:47.736Z,72.47
2018-06-05T05:53:16.844Z,73.21
2018-06-05T05:55:45.967Z,73.39
2018-06-05T05:58:15.077Z,72.87
2018-06-05T06:00:44.227Z,72.67
2018-06-05T06:03:13.345Z,73.48
2018-06-05T06:05:42.447Z,73.25
2018-06-05T06:08:11.547Z,72.07
2018-06-05T06:10:40.637Z,71.81
2018-06-05T06:13:09.739Z,72.00
2018-06-05T06:15:38.842Z,72.75
2018-06-05T06:18:08.081Z,71.98
2018-06-05T06:20:37.163Z,71.45
2018-06-05T06:23:06.350Z,72.26
2018-06-05T06:25:35.454Z,72.23
2018-06-05T06:28:04.573Z,71.51
2018-06-05T06:30:33.677Z,71.23
2018-06-05T06:33:02.773Z,71.54
2018-06-05T06:35:31.877Z,71.97
2018-06-05T06:38:00.957Z,72.11
2018-06-05T06:40:30.073Z,71.33
2018-06-05T06:42:59.169Z,71.33
2018-06-05T06:45:28.269Z,70.64
2018-06-05T06:47:57.393Z,70.48
2018-06-05T06:50:26.709Z,70.27
2018-06-05T06:52:55.838Z,70.93
2018-06-05T06:55:24.907Z,70.90
2018-06-05T06:57:54.037Z,70.22
2018-06-05T07:00:23.142Z,70.12
2018-06-05T07:02:52.242Z,70.70
2018-06-05T07:05:21.349Z,70.03
2018-06-05T07:07:50.449Z,69.96
2018-06-05T07:10:19.550Z,69.26
2018-06-05T07:12:48.681Z,69.94
2018-06-05T07:15:17.777Z,69.63
2018-06-05T07:17:46.889Z,70.12
2018-06-05T07:20:15.974Z,70.18
2018-06-05T07:22:45.094Z,70.33
2018-06-05T07:25:14.225Z,68.83
2018-06-05T07:27:43.337Z,69.87
2018-06-05T07:30:12.457Z,69.97
2018-06-05T07:32:41.525Z,70.30
2018-06-05T07:35:10.637Z,68.76
2018-06-05T07:37:39.749Z,69.25
2018-06-05T07:40:08.959Z,69.67
2018-06-05T07:42:38.049Z,69.38
2018-06-05T07:45:07.149Z,69.00
2018-06-05T07:47:36.304Z,68.58
2018-06-05T07:50:05.441Z,69.50
2018-06-05T07:52:34.549Z,68.84
2018-06-05T07:55:03.705Z,68.79
2018-06-05T07:57:32.797Z,68.90
2018-06-05T08:00:02.090Z,69.27
2018-06-05T08:02:31.204Z,68.28
2018-06-05T08:05:00.329Z,66.55
2018-06-05T08:07:29.473Z,67.40
2018-06-05T08:09:58.577Z,67.46
2018-06-05T08:12:27.713Z,67.19
2018-06-05T08:14:56.809Z,66.57
2018-06-05T08:17:25.949Z,65.98
2018-06-05T08:19:55.081Z,65.72
2018-06-05T08:22:25.820Z,65.44
2018-06-05T08:24:54.931Z,65.00
2018-06-05T08:27:24.021Z,65.36
2018-06-05T08:29:53.213Z,64.52
2018-06-05T08:32:22.320Z,66.01
2018-06-05T08:34:51.424Z,65.42
2018-06-05T08:37:20.525Z,65.02
2018-06-05T08:39:49.664Z,66.08
2018-06-05T08:42:18.745Z,64.39
2018-06-05T08:44:47.857Z,64.61
2018-06-05T08:47:16.955Z,64.78
2018-06-05T08:49:46.049Z,64.33
2018-06-05T08:52:15.193Z,63.39
2018-06-05T08:54:44.285Z,62.39
2018-06-05T08:57:13.394Z,63.03
2018-06-05T08:59:42.485Z,63.29
2018-06-05T09:02:11.586Z,62.95
2018-06-05T09:04:40.685Z,62.24
2018-06-05T09:07:10.139Z,61.56
2018-06-05T09:09:39.240Z,63.10
2018-06-05T09:12:08.376Z,62.16
2018-06-05T09:14:37.534Z,62.25
2018-06-05T09:17:06.645Z,61.40
2018-06-05T09:19:35.745Z,61.87
2018-06-05T09:22:04.904Z,62.03
2018-06-05T09:24:34.114Z,61.00
2018-06-05T09:27:03.241Z,60.96
2018-06-05T09:29:32.381Z,60.98
2018-06-05T09:32:01.522Z,60.13
2018-06-05T09:34:30.616Z,60.86
2018-06-05T09:36:59.802Z,58.36
2018-06-05T09:39:28.900Z,57.10
2018-06-05T09:41:57.998Z,58.71
2018-06-05T09:44:27.082Z,57.65
2018-06-05T09:46:56.228Z,57.66
2018-06-05T09:49:25.313Z,56.43
2018-06-05T09:51:54.429Z,55.82
2018-06-05T09:54:23.521Z,54.18
2018-06-05T09:56:52.638Z,53.16
2018-06-05T09:59:21.745Z,54.67
2018-06-05T10:01:50.841Z,55.69
2018-06-05T10:04:19.943Z,56.19
2018-06-05T10:06:49.030Z,53.68
2018-06-05T10:09:18.154Z,53.37
2018-06-05T10:11:47.249Z,52.42
2018-06-05T10:14:16.341Z,53.93
2018-06-05T10:16:45.443Z,52.89
2018-06-05T10:19:14.552Z,53.51
2018-06-05T10:21:43.644Z,54.42
2018-06-05T10:24:12.781Z,54.56
2018-06-05T10:26:41.887Z,52.20
2018-06-05T10:29:11.002Z,53.46
2018-06-05T10:31:40.134Z,54.35
2018-06-05T10:34:09.239Z,55.48
2018-06-05T10:36:38.350Z,53.05
2018-06-05T10:39:08.169Z,52.28
2018-06-05T10:41:37.297Z,53.34
2018-06-05T10:44:06.388Z,53.40
2018-06-05T10:46:35.502Z,52.92
2018-06-05T10:49:04.601Z,54.25
2018-06-05T10:51:33.725Z,53.58
2018-06-05T10:54:02.826Z,52.33
2018-06-05T10:56:31.925Z,51.06
2018-06-05T10:59:01.067Z,49.79
2018-06-05T11:01:30.141Z,52.68
2018-06-05T11:03:59.226Z,52.32
2018-06-05T11:06:28.328Z,52.99
2018-06-05T11:08:57.429Z,51.29
2018-06-05T11:11:26.557Z,52.29
2018-06-05T11:13:55.678Z,52.13
2018-06-05T11:16:24.784Z,51.56
2018-06-05T11:18:53.949Z,53.21
2018-06-05T11:21:23.055Z,49.83
2018-06-05T11:23:52.149Z,50.96
2018-06-05T11:26:21.253Z,49.50
2018-06-05T11:28:50.357Z,49.86
2018-06-05T11:31:19.493Z,49.47
2018-06-05T11:33:48.584Z,49.62
2018-06-05T11:36:17.706Z,50.40
2018-06-05T11:38:46.813Z,50.71
2018-06-05T11:41:15.922Z,48.90
2018-06-05T11:43:45.021Z,47.90
2018-06-05T11:46:14.117Z,51.48
2018-06-05T11:48:43.248Z,49.35
2018-06-05T11:51:12.361Z,48.71
2018-06-05T11:53:41.461Z,48.27
2018-06-05T11:56:10.578Z,49.52
2018-06-05T11:58:39.705Z,48.28
2018-06-05T12:01:08.807Z,47.26
2018-06-05T12:03:37.889Z,46.68
2018-06-05T12:06:07.029Z,46.10
2018-06-05T12:08:36.153Z,46.45
2018-06-05T12:11:05.281Z,46.73
2018-06-05T12:13:34.365Z,47.91
2018-06-05T12:16:03.497Z,46.50
2018-06-05T12:18:32.594Z,47.49
2018-06-05T12:21:01.703Z,46.87
2018-06-05T12:23:30.791Z,46.87
2018-06-05T12:26:00.324Z,44.22
2018-06-05T12:28:29.430Z,45.62
2018-06-05T12:30:58.562Z,44.85
2018-06-05T12:33:27.741Z,44.56
2018-06-05T12:35:56.897Z,46.28
2018-06-05T12:38:25.994Z,45.44
2018-06-05T12:40:55.089Z,45.94
2018-06-05T12:43:24.193Z,47.71
2018-06-05T12:45:53.272Z,45.72
2018-06-05T12:48:22.476Z,45.09
2018-06-05T12:50:51.629Z,45.80
2018-06-05T12:53:20.799Z,45.36
2018-06-05T12:55:49.889Z,45.78
2018-06-05T12:58:19.001Z,44.82
2018-06-05T13:00:48.112Z,45.71
2018-06-05T13:03:17.189Z,45.74
2018-06-05T13:05:46.301Z,45.54
2018-06-05T13:08:15.485Z,45.98
2018-06-05T13:10:44.601Z,45.67
2018-06-05T13:13:13.697Z,44.44
2018-06-05T13:15:42.815Z,44.91
2018-06-05T13:18:11.933Z,45.22
2018-06-05T13:20:41.037Z,45.18
2018-06-05T13:23:10.213Z,46.09
2018-06-05T13:25:39.257Z,45.95
2018-06-05T13:28:08.417Z,45.83
2018-06-05T13:30:37.581Z,44.30
2018-06-05T13:33:06.710Z,46.02
2018-06-05T13:35:35.837Z,44.92
2018-06-05T13:38:04.949Z,45.04
2018-06-05T13:40:34.053Z,44.78
2018-06-05T13:43:03.160Z,46.23
2018-06-05T13:45:32.260Z,44.82
2018-06-05T13:48:01.340Z,43.90
2018-06-05T13:50:30.465Z,44.11
2018-06-05T13:52:59.571Z,44.03
2018-06-05T13:55:28.681Z,44.77
2018-06-05T13:57:57.764Z,44.98
2018-06-05T14:00:26.885Z,46.28
2018-06-05T14:02:55.988Z,46.33
2018-06-05T14:05:25.078Z,44.77
2018-06-05T14:07:54.197Z,44.95
2018-06-05T14:10:23.286Z,44.59
2018-06-05T14:12:52.389Z,45.04
2018-06-05T14:15:21.501Z,43.93
2018-06-05T14:17:50.689Z,45.13
2018-06-05T14:20:19.800Z,45.82
2018-06-05T14:22:48.909Z,45.50
2018-06-05T14:25:18.017Z,46.23
2018-06-05T14:27:47.157Z,45.38
2018-06-05T14:30:16.275Z,45.02
2018-06-05T14:32:45.364Z,47.39
2018-06-05T14:35:14.481Z,46.93
2018-06-05T14:37:43.600Z,45.93
2018-06-05T14:40:12.700Z,45.98
2018-06-05T14:42:41.781Z,45.45
2018-06-05T14:45:11.823Z,47.55
2018-06-05T14:47:40.864Z,46.48
2018-06-05T14:50:09.961Z,47.21
2018-06-05T14:52:39.085Z,47.11
2018-06-05T14:55:08.288Z,47.46
2018-06-05T14:57:37.422Z,47.90
2018-06-05T15:00:06.558Z,48.32
2018-06-05T15:02:35.665Z,49.15
2018-06-05T15:05:04.802Z,48.96
2018-06-05T15:07:33.921Z,49.19
2018-06-05T15:10:03.005Z,48.95
2018-06-05T15:12:32.101Z,49.25
2018-06-05T15:15:01.222Z,48.52
2018-06-05T15:17:30.327Z,49.13
2018-06-05T15:19:59.441Z,48.70
2018-06-05T15:22:28.554Z,47.65
2018-06-05T15:24:57.656Z,48.37
2018-06-05T15:27:27.813Z,49.20
2018-06-05T15:29:56.941Z,48.68
2018-06-05T15:32:26.033Z,48.74
2018-06-05T15:34:55.179Z,48.21
2018-06-05T15:37:24.313Z,47.67
2018-06-05T15:39:53.433Z,48.45
2018-06-05T15:42:22.573Z,50.29
2018-06-05T15:44:51.685Z,47.90
2018-06-05T15:47:20.793Z,48.14
2018-06-05T15:49:49.897Z,48.60
2018-06-05T15:52:19.045Z,49.40
2018-06-05T15:54:48.145Z,48.66
2018-06-05T15:57:17.525Z,49.26
2018-06-05T15:59:46.673Z,48.60
2018-06-05T16:02:15.787Z,49.13
2018-06-05T16:04:45.011Z,49.35
2018-06-05T16:07:14.084Z,48.47
2018-06-05T16:09:43.197Z,47.90
2018-06-05T16:12:12.350Z,47.96
2018-06-05T16:14:41.405Z,48.83
2018-06-05T16:17:10.506Z,47.85
2018-06-05T16:19:39.601Z,47.83
2018-06-05T16:22:08.697Z,47.58
2018-06-05T16:24:37.792Z,48.94
2018-06-05T16:27:07.029Z,49.63
2018-06-05T16:29:36.229Z,48.86
2018-06-05T16:32:05.330Z,49.33
2018-06-05T16:34:34.461Z,49.36
2018-06-05T16:37:03.596Z,48.98
2018-06-05T16:39:32.697Z,49.19
2018-06-05T16:42:01.825Z,49.17
2018-06-05T16:44:30.945Z,49.69
2018-06-05T16:47:00.066Z,49.55
2018-06-05T16:49:29.161Z,49.13
2018-06-05T16:51:58.257Z,50.40
2018-06-05T16:54:27.362Z,49.11
2018-06-05T16:56:56.456Z,49.40
2018-06-05T16:59:25.572Z,50.02
2018-06-05T17:01:54.671Z,50.71
2018-06-05T17:04:23.794Z,51.86
2018-06-05T17:06:52.861Z,52.03
2018-06-05T17:09:21.998Z,52.30
2018-06-05T17:11:51.128Z,52.22
2018-06-05T17:14:20.220Z,52.53
2018-06-05T17:16:49.317Z,52.12
2018-06-05T17:19:18.409Z,52.79
2018-06-05T17:21:47.518Z,52.51
2018-06-05T17:27:13.984Z,53.55
2018-06-05T17:29:43.046Z,53.60
2018-06-05T17:32:12.249Z,52.46
2018-06-05T17:34:41.381Z,53.62
2018-06-05T17:37:10.522Z,53.80
2018-06-05T17:39:39.633Z,54.05
2018-06-05T17:42:08.738Z,53.52
2018-06-05T17:44:37.841Z,53.55
2018-06-05T17:47:06.965Z,54.47
2018-06-05T17:49:36.077Z,54.29
2018-06-05T17:52:05.239Z,54.40
2018-06-05T17:54:34.354Z,54.71
2018-06-05T18:00:00.561Z,53.78
2018-06-05T18:02:30.215Z,54.30
2018-06-05T18:04:59.333Z,54.91
2018-06-05T18:07:28.572Z,54.52
2018-06-05T18:09:57.712Z,55.29
2018-06-05T18:12:26.893Z,55.52
2018-06-05T18:14:56.386Z,54.56
2018-06-05T18:17:25.505Z,55.03
2018-06-05T18:19:54.613Z,55.57
2018-06-05T18:22:23.722Z,55.11
2018-06-05T18:24:52.829Z,55.96
2018-06-05T18:27:21.946Z,55.74
2018-06-05T18:29:51.046Z,56.43
2018-06-05T18:32:20.162Z,56.38
2018-06-05T18:34:49.274Z,56.06
2018-06-05T18:37:18.484Z,55.46
2018-06-05T18:39:47.536Z,56.50
2018-06-05T18:42:16.682Z,55.59
2018-06-05T18:44:45.789Z,55.83
2018-06-05T18:47:14.921Z,56.85
2018-06-05T18:49:44.132Z,55.69
2018-06-05T18:52:13.681Z,55.74
2018-06-05T18:54:42.905Z,57.16
2018-06-05T18:57:12.035Z,57.01
2018-06-05T18:59:41.150Z,56.51
2018-06-05T19:02:10.294Z,56.43
2018-06-05T19:04:39.414Z,57.45
2018-06-05T19:07:08.671Z,57.12
2018-06-05T19:09:37.742Z,57.37
2018-06-05T19:12:06.950Z,57.95
2018-06-05T19:14:36.088Z,57.38
2018-06-05T19:17:05.335Z,57.43
2018-06-05T19:19:34.454Z,58.06
2018-06-05T19:22:03.666Z,58.55
2018-06-05T19:24:38.441Z,58.20
2018-06-05T19:27:07.628Z,58.50
2018-06-05T19:29:36.876Z,57.35
2018-06-05T19:32:05.894Z,58.20
2018-06-05T19:34:35.020Z,58.66
2018-06-05T19:37:04.186Z,57.42
2018-06-05T19:39:33.336Z,57.26
2018-06-05T19:42:02.526Z,58.37
2018-06-05T19:44:31.601Z,58.43
2018-06-05T19:47:00.734Z,58.47
2018-06-05T19:49:29.877Z,57.67
2018-06-05T19:51:59.052Z,57.44
2018-06-05T19:54:28.146Z,58.59
2018-06-05T19:56:57.290Z,59.02
2018-06-05T19:59:26.413Z,58.90
2018-06-05T20:01:55.516Z,57.93
2018-06-05T20:04:24.657Z,58.63
2018-06-05T20:06:53.902Z,57.72
2018-06-05T20:09:23.933Z,58.62
2018-06-05T20:11:53.038Z,58.96
2018-06-05T20:14:22.258Z,59.07
2018-06-05T20:16:51.380Z,59.00
2018-06-05T20:19:20.490Z,58.72
2018-06-05T20:21:49.681Z,59.57
2018-06-05T20:24:18.925Z,58.98
2018-06-05T20:26:48.039Z,59.50
2018-06-05T20:29:18.362Z,58.61
2018-06-05T20:31:48.390Z,59.24
2018-06-05T20:34:17.526Z,59.41
2018-06-05T20:36:46.674Z,59.02
2018-06-05T20:39:15.782Z,59.58
2018-06-05T20:41:44.916Z,58.94
2018-06-05T20:44:14.127Z,58.85
2018-06-05T20:46:43.245Z,58.98
2018-06-05T20:49:12.370Z,59.63
2018-06-05T20:51:41.532Z,59.31
2018-06-05T20:54:10.688Z,59.49
2018-06-05T20:56:39.797Z,59.73
2018-06-05T20:59:08.930Z,59.69
2018-06-05T21:01:42.699Z,60.87
2018-06-05T21:04:11.809Z,60.61
2018-06-05T21:06:40.934Z,60.03
2018-06-05T21:09:10.078Z,60.29
2018-06-05T21:11:39.204Z,60.65
2018-06-05T21:14:08.330Z,61.24
2018-06-05T21:16:37.468Z,62.17
2018-06-05T21:19:06.586Z,60.98
2018-06-05T21:21:35.697Z,60.94
2018-06-05T21:24:04.909Z,60.97
2018-06-05T21:26:33.985Z,62.20
2018-06-05T21:29:03.102Z,62.03
2018-06-05T21:31:32.233Z,63.04
2018-06-05T21:34:01.389Z,63.19
2018-06-05T21:36:30.498Z,62.82
2018-06-05T21:39:15.949Z,62.50
2018-06-05T21:41:45.073Z,62.08
2018-06-05T21:44:14.186Z,62.73
2018-06-05T21:46:43.301Z,62.89
2018-06-05T21:49:12.753Z,63.24
2018-06-05T21:51:41.891Z,63.20
2018-06-05T21:54:11.049Z,63.51
2018-06-05T21:56:40.166Z,64.12
2018-06-05T21:59:09.296Z,63.44
2018-06-05T22:01:38.410Z,64.01
2018-06-05T22:04:07.585Z,63.65
2018-06-05T22:06:36.705Z,64.66
2018-06-05T22:09:08.174Z,64.17
2018-06-05T22:11:37.294Z,63.96
2018-06-05T22:14:06.529Z,65.18
2018-06-05T22:16:35.653Z,66.29
2018-06-05T22:19:04.745Z,66.20
2018-06-05T22:21:33.878Z,65.93
2018-06-05T22:24:02.990Z,66.43
2018-06-05T22:26:32.101Z,66.93
2018-06-05T22:29:01.222Z,65.69
2018-06-05T22:31:30.337Z,66.11
2018-06-05T22:33:59.473Z,66.86
2018-06-05T22:36:28.618Z,65.58
2018-06-05T22:38:57.770Z,65.52
2018-06-05T22:41:26.929Z,65.93
2018-06-05T22:43:56.049Z,67.26
2018-06-05T22:46:25.189Z,66.05
2018-06-05T22:48:54.306Z,66.87
2018-06-05T22:51:23.454Z,65.86
2018-06-05T22:53:52.581Z,66.76
2018-06-05T22:56:21.701Z,67.02
2018-06-05T22:58:50.877Z,66.75
2018-06-05T23:01:20.590Z,66.85
2018-06-05T23:03:49.725Z,68.22
2018-06-05T23:06:18.845Z,68.64
2018-06-05T23:08:47.988Z,67.76
2018-06-05T23:11:17.106Z,67.85
2018-06-05T23:13:46.258Z,68.88
2018-06-05T23:16:15.378Z,68.97
2018-06-05T23:18:44.506Z,70.06
2018-06-05T23:21:13.651Z,70.19
2018-06-05T23:23:42.785Z,68.93
2018-06-05T23:26:11.917Z,67.86
2018-06-05T23:28:41.078Z,68.75
2018-06-05T23:31:10.226Z,68.77
2018-06-05T23:33:39.370Z,68.39
2018-06-05T23:36:08.503Z,69.05
2018-06-05T23:38:37.635Z,69.82
2018-06-05T23:41:06.824Z,68.93
2018-06-05T23:43:35.925Z,69.92
2018-06-05T23:46:05.053Z,68.91
2018-06-05T23:48:34.165Z,68.55
2018-06-05T23:51:03.343Z,69.23
2018-06-05T23:53:32.453Z,69.90
2018-06-05T23:56:01.590Z,70.82
2018-06-05T23:58:30.706Z,70.56
